sensor_id;sensor_type;location;lat;lon;timestamp;P1;P2;P0
73917;PMS5003;63639;52.280;5.162;2022-11-14T00:00:52;55;47;
73917;PMS5003;63639;52.280;5.162;2022-11-14T00:03:19;55;49;
73917;PMS5003;63639;52.280;5.162;2022-11-14T00:05:45;52;47;
73917;PMS5003;63639;52.280;5.162;2022-11-14T00:08:13;50;49;
73917;PMS5003;63639;52.280;5.162;2022-11-14T00:10:42;56;52;
73917;PMS5003;63639;52.280;5.162;2022-11-14T00:13:10;53;49;
73917;PMS5003;63639;52.280;5.162;2022-11-14T00:15:37;51;49;
73917;PMS5003;63639;52.280;5.162;2022-11-14T00:18:04;54;53;
73917;PMS5003;63639;52.280;5.162;2022-11-14T00:20:31;54;51;
73917;PMS5003;63639;52.280;5.162;2022-11-14T00:22:58;61;54;
73917;PMS5003;63639;52.280;5.162;2022-11-14T00:25:25;57;54;
73917;PMS5003;63639;52.280;5.162;2022-11-14T00:27:53;58;53;
73917;PMS5003;63639;52.280;5.162;2022-11-14T00:30:22;66;53;
73917;PMS5003;63639;52.280;5.162;2022-11-14T00:32:48;59;54;
73917;PMS5003;63639;52.280;5.162;2022-11-14T00:35:15;53;51;
73917;PMS5003;63639;52.280;5.162;2022-11-14T00:37:42;57;50;
73917;PMS5003;63639;52.280;5.162;2022-11-14T00:40:09;60;53;
73917;PMS5003;63639;52.280;5.162;2022-11-14T00:42:36;67;57;
73917;PMS5003;63639;52.280;5.162;2022-11-14T00:45:03;59;53;
73917;PMS5003;63639;52.280;5.162;2022-11-14T00:47:31;64;58;
73917;PMS5003;63639;52.280;5.162;2022-11-14T00:49:57;65;59;
73917;PMS5003;63639;52.280;5.162;2022-11-14T00:52:24;64;58;
73917;PMS5003;63639;52.280;5.162;2022-11-14T00:54:51;61;58;
73917;PMS5003;63639;52.280;5.162;2022-11-14T00:57:18;59;57;
73917;PMS5003;63639;52.280;5.162;2022-11-14T00:59:45;72;60;
73917;PMS5003;63639;52.280;5.162;2022-11-14T01:02:12;73;65;
73917;PMS5003;63639;52.280;5.162;2022-11-14T01:04:38;69;64;
73917;PMS5003;63639;52.280;5.162;2022-11-14T01:07:05;69;61;
73917;PMS5003;63639;52.280;5.162;2022-11-14T01:09:32;65;63;
73917;PMS5003;63639;52.280;5.162;2022-11-14T01:11:58;67;58;
73917;PMS5003;63639;52.280;5.162;2022-11-14T01:14:25;76;69;
73917;PMS5003;63639;52.280;5.162;2022-11-14T01:16:52;69;62;
73917;PMS5003;63639;52.280;5.162;2022-11-14T01:19:19;70;70;
73917;PMS5003;63639;52.280;5.162;2022-11-14T01:21:45;72;69;
73917;PMS5003;63639;52.280;5.162;2022-11-14T01:24:12;70;63;
73917;PMS5003;63639;52.280;5.162;2022-11-14T01:26:39;79;68;
73917;PMS5003;63639;52.280;5.162;2022-11-14T01:29:06;78;71;
73917;PMS5003;63639;52.280;5.162;2022-11-14T01:31:33;76;68;
73917;PMS5003;63639;52.280;5.162;2022-11-14T01:34:00;71;63;
73917;PMS5003;63639;52.280;5.162;2022-11-14T01:36:27;84;75;
73917;PMS5003;63639;52.280;5.162;2022-11-14T01:38:54;86;76;
73917;PMS5003;63639;52.280;5.162;2022-11-14T01:41:21;76;68;
73917;PMS5003;63639;52.280;5.162;2022-11-14T01:43:48;70;61;
73917;PMS5003;63639;52.280;5.162;2022-11-14T01:46:16;70;69;
73917;PMS5003;63639;52.280;5.162;2022-11-14T01:48:49;74;65;
73917;PMS5003;63639;52.280;5.162;2022-11-14T01:51:24;67;61;
73917;PMS5003;63639;52.280;5.162;2022-11-14T01:53:55;73;68;
73917;PMS5003;63639;52.280;5.162;2022-11-14T01:56:25;75;65;
73917;PMS5003;63639;52.280;5.162;2022-11-14T01:58:57;74;61;
73917;PMS5003;63639;52.280;5.162;2022-11-14T02:01:46;73;67;
73917;PMS5003;63639;52.280;5.162;2022-11-14T02:04:16;61;60;
73917;PMS5003;63639;52.280;5.162;2022-11-14T02:06:45;68;62;
73917;PMS5003;63639;52.280;5.162;2022-11-14T02:09:13;73;67;
73917;PMS5003;63639;52.280;5.162;2022-11-14T02:11:40;77;69;
73917;PMS5003;63639;52.280;5.162;2022-11-14T02:14:10;70;60;
73917;PMS5003;63639;52.280;5.162;2022-11-14T02:16:38;78;75;
73917;PMS5003;63639;52.280;5.162;2022-11-14T02:19:06;93;75;
73917;PMS5003;63639;52.280;5.162;2022-11-14T02:21:33;72;64;
73917;PMS5003;63639;52.280;5.162;2022-11-14T02:24:00;77;69;
73917;PMS5003;63639;52.280;5.162;2022-11-14T02:26:26;73;62;
73917;PMS5003;63639;52.280;5.162;2022-11-14T02:28:53;76;67;
73917;PMS5003;63639;52.280;5.162;2022-11-14T02:31:20;72;66;
73917;PMS5003;63639;52.280;5.162;2022-11-14T02:33:47;76;67;
73917;PMS5003;63639;52.280;5.162;2022-11-14T02:36:14;81;69;
73917;PMS5003;63639;52.280;5.162;2022-11-14T02:38:41;69;65;
73917;PMS5003;63639;52.280;5.162;2022-11-14T02:41:07;69;66;
73917;PMS5003;63639;52.280;5.162;2022-11-14T02:43:35;67;64;
73917;PMS5003;63639;52.280;5.162;2022-11-14T02:46:01;69;61;
73917;PMS5003;63639;52.280;5.162;2022-11-14T02:48:29;73;62;
73917;PMS5003;63639;52.280;5.162;2022-11-14T02:50:56;68;62;
73917;PMS5003;63639;52.280;5.162;2022-11-14T02:53:23;74;66;
73917;PMS5003;63639;52.280;5.162;2022-11-14T02:55:49;81;69;
73917;PMS5003;63639;52.280;5.162;2022-11-14T02:58:16;70;62;
73917;PMS5003;63639;52.280;5.162;2022-11-14T03:00:43;68;62;
73917;PMS5003;63639;52.280;5.162;2022-11-14T03:03:09;73;65;
73917;PMS5003;63639;52.280;5.162;2022-11-14T03:05:37;72;65;
73917;PMS5003;63639;52.280;5.162;2022-11-14T03:08:03;77;71;
73917;PMS5003;63639;52.280;5.162;2022-11-14T03:10:30;74;68;
73917;PMS5003;63639;52.280;5.162;2022-11-14T03:12:57;77;71;
73917;PMS5003;63639;52.280;5.162;2022-11-14T03:15:23;79;66;
73917;PMS5003;63639;52.280;5.162;2022-11-14T03:17:50;69;63;
73917;PMS5003;63639;52.280;5.162;2022-11-14T03:20:17;71;63;
73917;PMS5003;63639;52.280;5.162;2022-11-14T03:22:43;75;69;
73917;PMS5003;63639;52.280;5.162;2022-11-14T03:25:10;70;63;
73917;PMS5003;63639;52.280;5.162;2022-11-14T03:27:36;74;62;
73917;PMS5003;63639;52.280;5.162;2022-11-14T03:30:04;84;65;
73917;PMS5003;63639;52.280;5.162;2022-11-14T03:32:31;72;64;
73917;PMS5003;63639;52.280;5.162;2022-11-14T03:34:58;77;71;
73917;PMS5003;63639;52.280;5.162;2022-11-14T03:37:25;71;65;
73917;PMS5003;63639;52.280;5.162;2022-11-14T03:39:52;75;66;
73917;PMS5003;63639;52.280;5.162;2022-11-14T03:42:18;78;65;
73917;PMS5003;63639;52.280;5.162;2022-11-14T03:44:45;78;66;
73917;PMS5003;63639;52.280;5.162;2022-11-14T03:47:12;72;64;
73917;PMS5003;63639;52.280;5.162;2022-11-14T03:49:38;74;64;
73917;PMS5003;63639;52.280;5.162;2022-11-14T03:52:06;69;65;
73917;PMS5003;63639;52.280;5.162;2022-11-14T03:54:32;68;62;
73917;PMS5003;63639;52.280;5.162;2022-11-14T03:56:59;77;65;
73917;PMS5003;63639;52.280;5.162;2022-11-14T03:59:26;69;63;
73917;PMS5003;63639;52.280;5.162;2022-11-14T04:01:52;70;64;
73917;PMS5003;63639;52.280;5.162;2022-11-14T04:04:19;71;66;
73917;PMS5003;63639;52.280;5.162;2022-11-14T04:06:46;61;56;
73917;PMS5003;63639;52.280;5.162;2022-11-14T04:09:13;68;61;
73917;PMS5003;63639;52.280;5.162;2022-11-14T04:11:40;73;68;
73917;PMS5003;63639;52.280;5.162;2022-11-14T04:14:08;73;66;
73917;PMS5003;63639;52.280;5.162;2022-11-14T04:16:35;80;67;
73917;PMS5003;63639;52.280;5.162;2022-11-14T04:19:02;67;60;
73917;PMS5003;63639;52.280;5.162;2022-11-14T04:21:29;83;72;
73917;PMS5003;63639;52.280;5.162;2022-11-14T04:23:55;68;60;
73917;PMS5003;63639;52.280;5.162;2022-11-14T04:26:22;73;58;
73917;PMS5003;63639;52.280;5.162;2022-11-14T04:28:49;76;65;
73917;PMS5003;63639;52.280;5.162;2022-11-14T04:31:15;66;64;
73917;PMS5003;63639;52.280;5.162;2022-11-14T04:33:42;83;64;
73917;PMS5003;63639;52.280;5.162;2022-11-14T04:36:09;89;72;
73917;PMS5003;63639;52.280;5.162;2022-11-14T04:38:36;87;66;
73917;PMS5003;63639;52.280;5.162;2022-11-14T04:41:03;70;63;
73917;PMS5003;63639;52.280;5.162;2022-11-14T04:43:30;85;67;
73917;PMS5003;63639;52.280;5.162;2022-11-14T04:45:57;76;65;
73917;PMS5003;63639;52.280;5.162;2022-11-14T04:48:24;69;60;
73917;PMS5003;63639;52.280;5.162;2022-11-14T04:50:50;75;67;
73917;PMS5003;63639;52.280;5.162;2022-11-14T04:53:17;67;58;
73917;PMS5003;63639;52.280;5.162;2022-11-14T04:55:44;78;68;
73917;PMS5003;63639;52.280;5.162;2022-11-14T04:58:10;80;68;
73917;PMS5003;63639;52.280;5.162;2022-11-14T05:00:37;81;68;
73917;PMS5003;63639;52.280;5.162;2022-11-14T05:03:04;71;59;
73917;PMS5003;63639;52.280;5.162;2022-11-14T05:05:31;65;54;
73917;PMS5003;63639;52.280;5.162;2022-11-14T05:07:58;81;67;
73917;PMS5003;63639;52.280;5.162;2022-11-14T05:10:25;71;61;
73917;PMS5003;63639;52.280;5.162;2022-11-14T05:12:52;77;59;
73917;PMS5003;63639;52.280;5.162;2022-11-14T05:15:19;77;63;
73917;PMS5003;63639;52.280;5.162;2022-11-14T05:17:45;74;66;
73917;PMS5003;63639;52.280;5.162;2022-11-14T05:20:12;73;65;
73917;PMS5003;63639;52.280;5.162;2022-11-14T05:22:39;73;65;
73917;PMS5003;63639;52.280;5.162;2022-11-14T05:25:07;73;63;
73917;PMS5003;63639;52.280;5.162;2022-11-14T05:27:34;76;68;
73917;PMS5003;63639;52.280;5.162;2022-11-14T05:30:01;77;65;
73917;PMS5003;63639;52.280;5.162;2022-11-14T05:32:27;64;59;
73917;PMS5003;63639;52.280;5.162;2022-11-14T05:34:54;80;71;
73917;PMS5003;63639;52.280;5.162;2022-11-14T05:37:20;75;69;
73917;PMS5003;63639;52.280;5.162;2022-11-14T05:39:47;71;58;
73917;PMS5003;63639;52.280;5.162;2022-11-14T05:42:13;62;57;
73917;PMS5003;63639;52.280;5.162;2022-11-14T05:44:40;81;69;
73917;PMS5003;63639;52.280;5.162;2022-11-14T05:47:07;72;61;
73917;PMS5003;63639;52.280;5.162;2022-11-14T05:49:33;77;68;
73917;PMS5003;63639;52.280;5.162;2022-11-14T05:52:01;71;61;
73917;PMS5003;63639;52.280;5.162;2022-11-14T05:54:28;68;62;
73917;PMS5003;63639;52.280;5.162;2022-11-14T05:56:54;63;58;
73917;PMS5003;63639;52.280;5.162;2022-11-14T05:59:21;70;63;
73917;PMS5003;63639;52.280;5.162;2022-11-14T06:01:48;67;59;
73917;PMS5003;63639;52.280;5.162;2022-11-14T06:04:15;63;55;
73917;PMS5003;63639;52.280;5.162;2022-11-14T06:06:42;76;68;
73917;PMS5003;63639;52.280;5.162;2022-11-14T06:09:09;70;65;
73917;PMS5003;63639;52.280;5.162;2022-11-14T06:11:36;64;56;
73917;PMS5003;63639;52.280;5.162;2022-11-14T06:14:02;63;56;
73917;PMS5003;63639;52.280;5.162;2022-11-14T06:16:29;71;65;
73917;PMS5003;63639;52.280;5.162;2022-11-14T06:18:56;69;63;
73917;PMS5003;63639;52.280;5.162;2022-11-14T06:21:23;69;58;
73917;PMS5003;63639;52.280;5.162;2022-11-14T06:23:51;71;63;
73917;PMS5003;63639;52.280;5.162;2022-11-14T06:26:19;72;64;
73917;PMS5003;63639;52.280;5.162;2022-11-14T06:28:48;68;58;
73917;PMS5003;63639;52.280;5.162;2022-11-14T06:31:16;62;58;
73917;PMS5003;63639;52.280;5.162;2022-11-14T06:33:43;67;54;
73917;PMS5003;63639;52.280;5.162;2022-11-14T06:36:10;70;53;
73917;PMS5003;63639;52.280;5.162;2022-11-14T06:38:39;73;63;
73917;PMS5003;63639;52.280;5.162;2022-11-14T06:41:07;69;62;
73917;PMS5003;63639;52.280;5.162;2022-11-14T06:43:35;67;58;
73917;PMS5003;63639;52.280;5.162;2022-11-14T06:46:05;63;55;
73917;PMS5003;63639;52.280;5.162;2022-11-14T06:48:34;69;62;
73917;PMS5003;63639;52.280;5.162;2022-11-14T06:51:02;84;67;
73917;PMS5003;63639;52.280;5.162;2022-11-14T06:53:30;65;53;
73917;PMS5003;63639;52.280;5.162;2022-11-14T06:55:59;63;60;
73917;PMS5003;63639;52.280;5.162;2022-11-14T06:58:28;70;61;
73917;PMS5003;63639;52.280;5.162;2022-11-14T07:01:01;63;57;
73917;PMS5003;63639;52.280;5.162;2022-11-14T07:03:29;64;53;
73917;PMS5003;63639;52.280;5.162;2022-11-14T07:05:56;61;50;
73917;PMS5003;63639;52.280;5.162;2022-11-14T07:08:23;69;57;
73917;PMS5003;63639;52.280;5.162;2022-11-14T07:10:50;68;55;
73917;PMS5003;63639;52.280;5.162;2022-11-14T07:13:18;72;65;
73917;PMS5003;63639;52.280;5.162;2022-11-14T07:15:48;56;54;
73917;PMS5003;63639;52.280;5.162;2022-11-14T07:18:15;61;52;
73917;PMS5003;63639;52.280;5.162;2022-11-14T07:20:42;68;56;
73917;PMS5003;63639;52.280;5.162;2022-11-14T07:23:09;68;56;
73917;PMS5003;63639;52.280;5.162;2022-11-14T07:25:36;65;61;
73917;PMS5003;63639;52.280;5.162;2022-11-14T07:28:03;68;56;
73917;PMS5003;63639;52.280;5.162;2022-11-14T07:30:30;70;62;
73917;PMS5003;63639;52.280;5.162;2022-11-14T07:32:58;73;62;
73917;PMS5003;63639;52.280;5.162;2022-11-14T07:35:25;60;54;
73917;PMS5003;63639;52.280;5.162;2022-11-14T07:37:52;60;54;
73917;PMS5003;63639;52.280;5.162;2022-11-14T07:40:25;59;53;
73917;PMS5003;63639;52.280;5.162;2022-11-14T07:42:55;56;50;
73917;PMS5003;63639;52.280;5.162;2022-11-14T07:45:22;66;57;
73917;PMS5003;63639;52.280;5.162;2022-11-14T07:47:52;68;54;
73917;PMS5003;63639;52.280;5.162;2022-11-14T07:50:20;65;55;
73917;PMS5003;63639;52.280;5.162;2022-11-14T07:52:48;61;50;
73917;PMS5003;63639;52.280;5.162;2022-11-14T07:55:15;71;60;
73917;PMS5003;63639;52.280;5.162;2022-11-14T07:57:42;67;62;
73917;PMS5003;63639;52.280;5.162;2022-11-14T08:00:10;68;58;
73917;PMS5003;63639;52.280;5.162;2022-11-14T08:02:38;58;56;
73917;PMS5003;63639;52.280;5.162;2022-11-14T08:05:05;61;53;
73917;PMS5003;63639;52.280;5.162;2022-11-14T08:07:32;66;57;
73917;PMS5003;63639;52.280;5.162;2022-11-14T08:09:59;57;57;
73917;PMS5003;63639;52.280;5.162;2022-11-14T08:12:26;61;56;
73917;PMS5003;63639;52.280;5.162;2022-11-14T08:14:53;67;52;
73917;PMS5003;63639;52.280;5.162;2022-11-14T08:17:20;60;52;
73917;PMS5003;63639;52.280;5.162;2022-11-14T08:19:48;70;53;
73917;PMS5003;63639;52.280;5.162;2022-11-14T08:22:15;67;56;
73917;PMS5003;63639;52.280;5.162;2022-11-14T08:24:42;56;51;
73917;PMS5003;63639;52.280;5.162;2022-11-14T08:27:09;56;55;
73917;PMS5003;63639;52.280;5.162;2022-11-14T08:29:35;67;55;
73917;PMS5003;63639;52.280;5.162;2022-11-14T08:32:02;61;51;
73917;PMS5003;63639;52.280;5.162;2022-11-14T08:34:29;62;51;
73917;PMS5003;63639;52.280;5.162;2022-11-14T08:36:55;64;61;
73917;PMS5003;63639;52.280;5.162;2022-11-14T08:39:22;61;55;
73917;PMS5003;63639;52.280;5.162;2022-11-14T08:41:49;70;59;
73917;PMS5003;63639;52.280;5.162;2022-11-14T08:44:16;54;51;
73917;PMS5003;63639;52.280;5.162;2022-11-14T08:46:42;69;58;
73917;PMS5003;63639;52.280;5.162;2022-11-14T08:49:09;66;58;
73917;PMS5003;63639;52.280;5.162;2022-11-14T08:51:36;68;59;
73917;PMS5003;63639;52.280;5.162;2022-11-14T08:54:03;66;55;
73917;PMS5003;63639;52.280;5.162;2022-11-14T08:56:30;70;56;
73917;PMS5003;63639;52.280;5.162;2022-11-14T08:58:56;52;48;
73917;PMS5003;63639;52.280;5.162;2022-11-14T09:01:23;59;53;
73917;PMS5003;63639;52.280;5.162;2022-11-14T09:03:50;55;50;
73917;PMS5003;63639;52.280;5.162;2022-11-14T09:06:16;64;56;
73917;PMS5003;63639;52.280;5.162;2022-11-14T09:08:43;57;48;
73917;PMS5003;63639;52.280;5.162;2022-11-14T09:11:10;66;57;
73917;PMS5003;63639;52.280;5.162;2022-11-14T09:13:37;57;51;
73917;PMS5003;63639;52.280;5.162;2022-11-14T09:16:04;61;50;
73917;PMS5003;63639;52.280;5.162;2022-11-14T09:18:31;59;51;
73917;PMS5003;63639;52.280;5.162;2022-11-14T09:20:59;59;51;
73917;PMS5003;63639;52.280;5.162;2022-11-14T09:23:26;62;51;
73917;PMS5003;63639;52.280;5.162;2022-11-14T09:25:53;54;50;
73917;PMS5003;63639;52.280;5.162;2022-11-14T09:28:20;44;44;
73917;PMS5003;63639;52.280;5.162;2022-11-14T09:30:47;59;56;
73917;PMS5003;63639;52.280;5.162;2022-11-14T09:33:14;62;54;
73917;PMS5003;63639;52.280;5.162;2022-11-14T09:35:41;53;49;
73917;PMS5003;63639;52.280;5.162;2022-11-14T09:38:09;59;49;
73917;PMS5003;63639;52.280;5.162;2022-11-14T09:40:40;59;55;
73917;PMS5003;63639;52.280;5.162;2022-11-14T09:43:23;53;47;
73917;PMS5003;63639;52.280;5.162;2022-11-14T09:46:02;57;53;
73917;PMS5003;63639;52.280;5.162;2022-11-14T09:48:30;59;51;
73917;PMS5003;63639;52.280;5.162;2022-11-14T09:51:06;57;55;
73917;PMS5003;63639;52.280;5.162;2022-11-14T09:53:35;49;43;
73917;PMS5003;63639;52.280;5.162;2022-11-14T09:56:08;59;51;
73917;PMS5003;63639;52.280;5.162;2022-11-14T09:58:38;52;45;
73917;PMS5003;63639;52.280;5.162;2022-11-14T10:01:07;45;42;
73917;PMS5003;63639;52.280;5.162;2022-11-14T10:03:43;55;49;
73917;PMS5003;63639;52.280;5.162;2022-11-14T10:06:19;53;47;
73917;PMS5003;63639;52.280;5.162;2022-11-14T10:08:58;58;51;
73917;PMS5003;63639;52.280;5.162;2022-11-14T10:11:37;53;49;
73917;PMS5003;63639;52.280;5.162;2022-11-14T10:14:23;52;48;
73917;PMS5003;63639;52.280;5.162;2022-11-14T10:17:40;51;47;
73917;PMS5003;63639;52.280;5.162;2022-11-14T10:20:19;55;48;
73917;PMS5003;63639;52.280;5.162;2022-11-14T10:22:58;52;47;
73917;PMS5003;63639;52.280;5.162;2022-11-14T10:25:34;48;41;
73917;PMS5003;63639;52.280;5.162;2022-11-14T10:28:19;49;47;
73917;PMS5003;63639;52.280;5.162;2022-11-14T10:30:57;56;52;
73917;PMS5003;63639;52.280;5.162;2022-11-14T10:33:32;48;46;
73917;PMS5003;63639;52.280;5.162;2022-11-14T10:36:14;52;49;
73917;PMS5003;63639;52.280;5.162;2022-11-14T10:38:48;53;50;
73917;PMS5003;63639;52.280;5.162;2022-11-14T10:41:20;53;49;
73917;PMS5003;63639;52.280;5.162;2022-11-14T10:43:50;55;48;
73917;PMS5003;63639;52.280;5.162;2022-11-14T10:46:21;51;44;
73917;PMS5003;63639;52.280;5.162;2022-11-14T10:48:52;49;46;
73917;PMS5003;63639;52.280;5.162;2022-11-14T10:51:20;49;47;
73917;PMS5003;63639;52.280;5.162;2022-11-14T10:53:53;54;48;
73917;PMS5003;63639;52.280;5.162;2022-11-14T10:56:23;53;49;
73917;PMS5003;63639;52.280;5.162;2022-11-14T10:58:50;51;48;
73917;PMS5003;63639;52.280;5.162;2022-11-14T11:01:34;50;48;
73917;PMS5003;63639;52.280;5.162;2022-11-14T11:04:19;52;49;
73917;PMS5003;63639;52.280;5.162;2022-11-14T11:06:50;54;49;
73917;PMS5003;63639;52.280;5.162;2022-11-14T11:09:18;55;51;
73917;PMS5003;63639;52.280;5.162;2022-11-14T11:11:51;49;45;
73917;PMS5003;63639;52.280;5.162;2022-11-14T11:14:20;51;48;
73917;PMS5003;63639;52.280;5.162;2022-11-14T11:16:48;53;45;
73917;PMS5003;63639;52.280;5.162;2022-11-14T11:19:21;50;46;
73917;PMS5003;63639;52.280;5.162;2022-11-14T11:21:50;45;41;
73917;PMS5003;63639;52.280;5.162;2022-11-14T11:24:34;57;50;
73917;PMS5003;63639;52.280;5.162;2022-11-14T11:27:34;52;51;
73917;PMS5003;63639;52.280;5.162;2022-11-14T11:30:05;42;41;
73917;PMS5003;63639;52.280;5.162;2022-11-14T11:32:41;49;45;
73917;PMS5003;63639;52.280;5.162;2022-11-14T11:35:09;55;48;
73917;PMS5003;63639;52.280;5.162;2022-11-14T11:37:39;49;46;
73917;PMS5003;63639;52.280;5.162;2022-11-14T11:40:13;42;41;
73917;PMS5003;63639;52.280;5.162;2022-11-14T11:42:44;50;47;
73917;PMS5003;63639;52.280;5.162;2022-11-14T11:45:15;50;44;
73917;PMS5003;63639;52.280;5.162;2022-11-14T11:47:45;42;41;
73917;PMS5003;63639;52.280;5.162;2022-11-14T11:50:19;52;47;
73917;PMS5003;63639;52.280;5.162;2022-11-14T11:52:49;48;45;
73917;PMS5003;63639;52.280;5.162;2022-11-14T11:55:23;47;44;
73917;PMS5003;63639;52.280;5.162;2022-11-14T11:57:55;46;43;
73917;PMS5003;63639;52.280;5.162;2022-11-14T12:00:27;44;41;
73917;PMS5003;63639;52.280;5.162;2022-11-14T12:02:55;49;42;
73917;PMS5003;63639;52.280;5.162;2022-11-14T12:05:24;52;49;
73917;PMS5003;63639;52.280;5.162;2022-11-14T12:07:57;54;50;
73917;PMS5003;63639;52.280;5.162;2022-11-14T12:10:28;54;50;
73917;PMS5003;63639;52.280;5.162;2022-11-14T12:13:05;49;43;
73917;PMS5003;63639;52.280;5.162;2022-11-14T12:15:57;55;49;
73917;PMS5003;63639;52.280;5.162;2022-11-14T12:18:39;48;45;
73917;PMS5003;63639;52.280;5.162;2022-11-14T12:21:20;43;43;
73917;PMS5003;63639;52.280;5.162;2022-11-14T12:24:12;57;53;
73917;PMS5003;63639;52.280;5.162;2022-11-14T12:26:56;55;49;
73917;PMS5003;63639;52.280;5.162;2022-11-14T12:29:45;52;49;
73917;PMS5003;63639;52.280;5.162;2022-11-14T12:32:28;47;44;
73917;PMS5003;63639;52.280;5.162;2022-11-14T12:34:57;43;43;
73917;PMS5003;63639;52.280;5.162;2022-11-14T12:37:30;56;54;
73917;PMS5003;63639;52.280;5.162;2022-11-14T12:40:00;49;47;
73917;PMS5003;63639;52.280;5.162;2022-11-14T12:42:30;50;44;
73917;PMS5003;63639;52.280;5.162;2022-11-14T12:44:57;60;53;
73917;PMS5003;63639;52.280;5.162;2022-11-14T12:47:24;49;48;
73917;PMS5003;63639;52.280;5.162;2022-11-14T12:49:56;56;48;
73917;PMS5003;63639;52.280;5.162;2022-11-14T12:52:52;65;61;
73917;PMS5003;63639;52.280;5.162;2022-11-14T12:55:53;51;46;
73917;PMS5003;63639;52.280;5.162;2022-11-14T12:58:32;53;50;
73917;PMS5003;63639;52.280;5.162;2022-11-14T13:01:19;54;50;
73917;PMS5003;63639;52.280;5.162;2022-11-14T13:03:58;49;48;
73917;PMS5003;63639;52.280;5.162;2022-11-14T13:06:41;54;49;
73917;PMS5003;63639;52.280;5.162;2022-11-14T13:09:24;53;50;
73917;PMS5003;63639;52.280;5.162;2022-11-14T13:11:58;54;51;
73917;PMS5003;63639;52.280;5.162;2022-11-14T13:14:47;52;50;
73917;PMS5003;63639;52.280;5.162;2022-11-14T13:17:21;58;51;
73917;PMS5003;63639;52.280;5.162;2022-11-14T13:19:50;58;53;
73917;PMS5003;63639;52.280;5.162;2022-11-14T13:22:19;59;56;
73917;PMS5003;63639;52.280;5.162;2022-11-14T13:25:21;54;49;
73917;PMS5003;63639;52.280;5.162;2022-11-14T13:27:48;58;52;
73917;PMS5003;63639;52.280;5.162;2022-11-14T13:30:15;52;50;
73917;PMS5003;63639;52.280;5.162;2022-11-14T13:32:56;66;60;
73917;PMS5003;63639;52.280;5.162;2022-11-14T13:35:28;69;63;
73917;PMS5003;63639;52.280;5.162;2022-11-14T13:38:12;72;60;
73917;PMS5003;63639;52.280;5.162;2022-11-14T13:41:23;77;70;
73917;PMS5003;63639;52.280;5.162;2022-11-14T13:44:03;80;70;
73917;PMS5003;63639;52.280;5.162;2022-11-14T13:46:47;81;69;
73917;PMS5003;63639;52.280;5.162;2022-11-14T13:49:31;80;71;
73917;PMS5003;63639;52.280;5.162;2022-11-14T13:52:10;74;69;
73917;PMS5003;63639;52.280;5.162;2022-11-14T13:54:37;91;71;
73917;PMS5003;63639;52.280;5.162;2022-11-14T13:57:12;78;71;
73917;PMS5003;63639;52.280;5.162;2022-11-14T13:59:51;84;73;
73917;PMS5003;63639;52.280;5.162;2022-11-14T14:02:34;71;67;
73917;PMS5003;63639;52.280;5.162;2022-11-14T14:05:11;74;64;
73917;PMS5003;63639;52.280;5.162;2022-11-14T14:07:51;79;71;
73917;PMS5003;63639;52.280;5.162;2022-11-14T14:10:25;66;60;
73917;PMS5003;63639;52.280;5.162;2022-11-14T14:12:59;81;62;
73917;PMS5003;63639;52.280;5.162;2022-11-14T14:15:40;69;62;
73917;PMS5003;63639;52.280;5.162;2022-11-14T14:18:14;70;63;
73917;PMS5003;63639;52.280;5.162;2022-11-14T14:20:51;73;64;
73917;PMS5003;63639;52.280;5.162;2022-11-14T14:23:30;73;67;
73917;PMS5003;63639;52.280;5.162;2022-11-14T14:26:06;77;67;
73917;PMS5003;63639;52.280;5.162;2022-11-14T14:28:46;69;66;
73917;PMS5003;63639;52.280;5.162;2022-11-14T14:31:19;75;67;
73917;PMS5003;63639;52.280;5.162;2022-11-14T14:33:47;68;66;
73917;PMS5003;63639;52.280;5.162;2022-11-14T14:36:16;73;62;
73917;PMS5003;63639;52.280;5.162;2022-11-14T14:38:44;71;62;
73917;PMS5003;63639;52.280;5.162;2022-11-14T14:41:12;80;72;
73917;PMS5003;63639;52.280;5.162;2022-11-14T14:43:41;76;70;
73917;PMS5003;63639;52.280;5.162;2022-11-14T14:46:15;68;66;
73917;PMS5003;63639;52.280;5.162;2022-11-14T14:48:50;77;67;
73917;PMS5003;63639;52.280;5.162;2022-11-14T14:51:27;72;65;
73917;PMS5003;63639;52.280;5.162;2022-11-14T14:53:55;69;69;
73917;PMS5003;63639;52.280;5.162;2022-11-14T14:56:22;70;64;
73917;PMS5003;63639;52.280;5.162;2022-11-14T14:58:49;80;69;
73917;PMS5003;63639;52.280;5.162;2022-11-14T15:01:17;83;71;
73917;PMS5003;63639;52.280;5.162;2022-11-14T15:03:47;70;61;
73917;PMS5003;63639;52.280;5.162;2022-11-14T15:06:19;74;63;
73917;PMS5003;63639;52.280;5.162;2022-11-14T15:08:48;72;65;
73917;PMS5003;63639;52.280;5.162;2022-11-14T15:11:15;72;61;
73917;PMS5003;63639;52.280;5.162;2022-11-14T15:13:42;82;70;
73917;PMS5003;63639;52.280;5.162;2022-11-14T15:16:10;72;64;
73917;PMS5003;63639;52.280;5.162;2022-11-14T15:18:38;76;68;
73917;PMS5003;63639;52.280;5.162;2022-11-14T15:21:05;72;64;
73917;PMS5003;63639;52.280;5.162;2022-11-14T15:23:33;64;59;
73917;PMS5003;63639;52.280;5.162;2022-11-14T15:26:01;80;64;
73917;PMS5003;63639;52.280;5.162;2022-11-14T15:28:28;75;65;
73917;PMS5003;63639;52.280;5.162;2022-11-14T15:30:56;85;75;
73917;PMS5003;63639;52.280;5.162;2022-11-14T15:33:26;68;67;
73917;PMS5003;63639;52.280;5.162;2022-11-14T15:36:10;83;75;
73917;PMS5003;63639;52.280;5.162;2022-11-14T15:38:39;75;67;
73917;PMS5003;63639;52.280;5.162;2022-11-14T15:41:10;82;71;
73917;PMS5003;63639;52.280;5.162;2022-11-14T15:43:46;85;79;
73917;PMS5003;63639;52.280;5.162;2022-11-14T15:46:47;96;76;
73917;PMS5003;63639;52.280;5.162;2022-11-14T15:49:16;85;73;
73917;PMS5003;63639;52.280;5.162;2022-11-14T15:51:47;74;70;
73917;PMS5003;63639;52.280;5.162;2022-11-14T15:54:24;87;78;
73917;PMS5003;63639;52.280;5.162;2022-11-14T15:56:53;89;81;
73917;PMS5003;63639;52.280;5.162;2022-11-14T15:59:21;80;73;
73917;PMS5003;63639;52.280;5.162;2022-11-14T16:01:49;98;84;
73917;PMS5003;63639;52.280;5.162;2022-11-14T16:04:22;74;69;
73917;PMS5003;63639;52.280;5.162;2022-11-14T16:06:51;85;72;
73917;PMS5003;63639;52.280;5.162;2022-11-14T16:09:18;96;82;
73917;PMS5003;63639;52.280;5.162;2022-11-14T16:11:46;78;72;
73917;PMS5003;63639;52.280;5.162;2022-11-14T16:14:13;80;75;
73917;PMS5003;63639;52.280;5.162;2022-11-14T16:16:40;92;81;
73917;PMS5003;63639;52.280;5.162;2022-11-14T16:19:09;92;85;
73917;PMS5003;63639;52.280;5.162;2022-11-14T16:21:38;83;78;
73917;PMS5003;63639;52.280;5.162;2022-11-14T16:24:08;83;74;
73917;PMS5003;63639;52.280;5.162;2022-11-14T16:26:39;86;73;
73917;PMS5003;63639;52.280;5.162;2022-11-14T16:29:06;97;82;
73917;PMS5003;63639;52.280;5.162;2022-11-14T16:31:32;88;75;
73917;PMS5003;63639;52.280;5.162;2022-11-14T16:33:59;93;80;
73917;PMS5003;63639;52.280;5.162;2022-11-14T16:36:26;76;71;
73917;PMS5003;63639;52.280;5.162;2022-11-14T16:38:53;80;74;